Time;durP1;ratioP1;P1;durP2;ratioP2;P2;SDS_P1;SDS_P2;PMS_P1;PMS_P2;Temp;Humidity;BMP_temperature;BMP_pressure;BME280_temperature;BME280_humidity;BME280_pressure;Samples;Min_cycle;Max_cycle;Signal;HPM_P1;HPM_P2
2022/06/29 00:01:52;;;;;;;3.13;2.42;;;;;;;16.14;100.00;101473.41;5052128;28;20041;-56
2022/06/29 00:04:18;;;;;;;4.95;3.20;;;;;;;16.43;100.00;101525.19;5051098;28;20495;-55
2022/06/29 00:06:44;;;;;;;7.45;3.05;;;;;;;16.38;100.00;101517.41;5053040;28;20116;-59
2022/06/29 00:09:09;;;;;;;8.95;3.65;;;;;;;15.68;100.00;101408.19;5052522;28;20115;-54
2022/06/29 00:11:35;;;;;;;5.18;2.88;;;;;;;16.22;100.00;101514.63;5052823;28;20067;-54
2022/06/29 00:14:00;;;;;;;3.75;2.60;;;;;;;15.91;100.00;101468.22;5052545;28;20041;-54
2022/06/29 00:16:25;;;;;;;4.43;2.88;;;;;;;16.19;100.00;101505.91;5052525;28;20072;-58
2022/06/29 00:18:51;;;;;;;3.95;2.80;;;;;;;16.17;100.00;101511.28;5052645;28;20131;-57
2022/06/29 00:21:16;;;;;;;5.35;2.50;;;;;;;15.87;100.00;101459.56;5052633;28;20033;-54
2022/06/29 00:23:41;;;;;;;4.90;2.53;;;;;;;16.17;100.00;101511.28;5052476;28;20048;-52
2022/06/29 00:26:07;;;;;;;5.15;2.38;;;;;;;16.15;100.00;101501.66;5052529;28;20037;-60
2022/06/29 00:28:32;;;;;;;3.85;2.47;;;;;;;16.10;100.00;101496.56;5052415;28;20037;-56
2022/06/29 00:30:57;;;;;;;3.55;2.15;;;;;;;15.75;100.00;101441.50;5052262;28;20083;-53
2022/06/29 00:33:23;;;;;;;3.55;2.30;;;;;;;16.00;100.00;101487.25;5052776;28;20498;-55
2022/06/29 00:35:48;;;;;;;4.55;2.30;;;;;;;16.04;100.00;101499.50;5052635;28;20072;-54
2022/06/29 00:38:13;;;;;;;2.88;2.10;;;;;;;15.88;100.00;101466.56;5052125;28;20056;-54
2022/06/29 00:40:39;;;;;;;4.25;2.40;;;;;;;15.62;100.00;101441.19;5052373;28;20117;-56
2022/06/29 00:43:05;;;;;;;5.45;2.10;;;;;;;15.91;100.00;101478.84;5052227;28;20025;-59
2022/06/29 00:45:30;;;;;;;5.50;2.45;;;;;;;15.95;100.00;101499.91;5050939;28;20472;-53
2022/06/29 00:47:55;;;;;;;4.68;2.38;;;;;;;15.90;100.00;101488.63;5052457;28;20496;-55
2022/06/29 00:50:21;;;;;;;4.95;2.28;;;;;;;15.85;100.00;101490.59;5052269;28;20025;-56
2022/06/29 00:52:47;;;;;;;4.88;2.50;;;;;;;15.49;100.00;101423.22;5050868;28;20063;-53
2022/06/29 00:55:17;;;;;;;4.97;2.40;;;;;;;15.77;100.00;101482.97;5050911;28;20146;-60
2022/06/29 00:57:44;;;;;;;2.97;2.00;;;;;;;15.71;100.00;101493.00;5050949;28;20033;-53
2022/06/29 01:00:10;;;;;;;3.50;2.60;;;;;;;15.68;100.00;101477.19;5050597;28;20032;-57
2022/06/29 01:02:36;;;;;;;5.78;2.25;;;;;;;15.56;100.00;101456.50;5051923;28;20029;-58
2022/06/29 01:05:03;;;;;;;6.68;2.60;;;;;;;15.61;100.00;101481.06;5050607;28;20032;-53
2022/06/29 01:07:33;;;;;;;4.07;2.17;;;;;;;15.62;100.00;101474.81;5052192;28;20457;-56
2022/06/29 01:10:00;;;;;;;4.72;2.30;;;;;;;15.63;100.00;101480.06;5051917;28;20060;-53
2022/06/29 01:12:25;;;;;;;3.67;2.50;;;;;;;15.33;100.00;101409.69;5051900;28;20041;-54
2022/06/29 01:14:51;;;;;;;2.45;2.13;;;;;;;15.66;100.00;101464.00;5051991;28;20055;-55
2022/06/29 01:17:17;;;;;;;3.78;2.42;;;;;;;15.66;100.00;101466.66;5051044;28;21008;-53
2022/06/29 01:19:43;;;;;;;4.07;2.80;;;;;;;15.63;100.00;101465.94;5050889;28;20399;-54
2022/06/29 01:22:16;;;;;;;3.42;2.65;;;;;;;15.56;100.00;101467.97;5054204;28;20029;-59
2022/06/29 01:24:44;;;;;;;3.58;2.22;;;;;;;15.29;100.00;101425.81;5038854;28;20049;-52
2022/06/29 01:27:10;;;;;;;3.08;2.53;;;;;;;15.56;100.00;101469.75;5055873;28;20094;-54
2022/06/29 01:29:35;;;;;;;3.42;2.05;;;;;;;15.57;100.00;101467.06;5055038;28;20037;-56
2022/06/29 01:32:01;;;;;;;2.78;2.30;;;;;;;15.55;100.00;101474.22;5055984;28;20033;-56
2022/06/29 01:34:28;;;;;;;4.38;2.63;;;;;;;15.20;100.00;101406.72;5055751;28;20033;-59
2022/06/29 01:36:53;;;;;;;3.33;2.60;;;;;;;15.59;100.00;101461.66;5054490;28;20120;-54
2022/06/29 01:39:19;;;;;;;5.05;2.60;;;;;;;15.53;100.00;101460.16;5055686;28;20183;-58
2022/06/29 01:41:44;;;;;;;4.57;2.90;;;;;;;15.59;100.00;101469.63;5055536;28;20079;-50
2022/06/29 01:44:10;;;;;;;4.20;3.03;;;;;;;15.59;100.00;101475.81;5038124;28;20365;-53
2022/06/29 01:46:35;;;;;;;3.67;2.40;;;;;;;15.63;100.00;101476.53;5055373;28;20075;-56
2022/06/29 01:49:01;;;;;;;3.95;2.47;;;;;;;15.64;100.00;101459.69;5053626;28;20071;-57
2022/06/29 01:51:26;;;;;;;4.53;2.70;;;;;;;15.72;100.00;101468.19;5054869;28;20068;-55
2022/06/29 01:53:51;;;;;;;7.05;2.70;;;;;;;15.75;100.00;101470.72;5054553;28;20025;-55
2022/06/29 01:56:17;;;;;;;4.18;2.70;;;;;;;15.70;100.00;101470.88;5053401;28;20029;-52
2022/06/29 01:58:43;;;;;;;3.83;2.83;;;;;;;15.70;100.00;101470.06;5054916;28;20033;-56
2022/06/29 02:01:08;;;;;;;5.38;2.88;;;;;;;15.41;100.00;101422.66;5054793;28;20368;-55
2022/06/29 02:03:34;;;;;;;3.33;2.45;;;;;;;15.65;100.00;101456.09;5053386;28;20041;-51
2022/06/29 02:05:59;;;;;;;3.13;2.80;;;;;;;15.26;100.00;101397.66;5054532;28;20041;-59
2022/06/29 02:08:24;;;;;;;3.58;2.50;;;;;;;15.51;100.00;101448.75;5054318;28;20021;-56
2022/06/29 02:10:50;;;;;;;5.50;2.70;;;;;;;15.46;100.00;101456.00;5053827;28;20226;-53
2022/06/29 02:13:15;;;;;;;4.75;2.53;;;;;;;15.32;100.00;101431.88;5053925;28;20435;-58
2022/06/29 02:15:41;;;;;;;4.45;2.88;;;;;;;15.36;100.00;101452.00;5054099;28;20029;-57
2022/06/29 02:18:06;;;;;;;4.55;2.67;;;;;;;15.33;100.00;101444.19;5054584;28;20059;-54
2022/06/29 02:20:31;;;;;;;3.83;2.85;;;;;;;15.30;100.00;101449.63;5054170;28;20413;-60
2022/06/29 02:22:57;;;;;;;3.95;3.05;;;;;;;15.26;100.00;101445.38;5054273;28;20075;-55
2022/06/29 02:25:22;;;;;;;3.67;3.35;;;;;;;15.18;100.00;101440.38;5053821;28;20056;-55
2022/06/29 02:27:47;;;;;;;4.05;3.05;;;;;;;15.07;100.00;101426.72;5053994;28;20067;-59
2022/06/29 02:30:14;;;;;;;6.35;3.55;;;;;;;15.10;100.00;101442.50;5054147;28;20044;-57
2022/06/29 02:35:24;;;;;;;4.68;3.42;;;;;;;15.01;100.00;101431.41;5054337;28;20047;-57
2022/06/29 02:37:50;;;;;;;6.68;3.58;;;;;;;14.98;100.00;101436.84;5053864;28;20029;-51
2022/06/29 02:40:15;;;;;;;7.15;4.00;;;;;;;14.87;100.00;101423.16;5054049;28;20052;-54
2022/06/29 02:42:40;;;;;;;4.22;3.72;;;;;;;14.88;100.00;101427.53;5054018;28;20021;-57
2022/06/29 02:45:06;;;;;;;4.55;3.70;;;;;;;14.51;100.00;101361.91;5054138;28;20037;-55
2022/06/29 02:47:32;;;;;;;6.90;3.53;;;;;;;14.47;100.00;101352.38;5053970;28;20484;-55
2022/06/29 02:49:57;;;;;;;5.60;3.70;;;;;;;14.48;100.00;101351.44;5053926;28;20038;-55
2022/06/29 02:52:22;;;;;;;5.30;3.78;;;;;;;14.53;100.00;101360.09;5053057;28;20333;-51
2022/06/29 02:54:47;;;;;;;3.80;3.50;;;;;;;14.75;100.00;101402.44;5053614;28;20076;-55
2022/06/29 02:57:13;;;;;;;4.25;3.53;;;;;;;14.74;100.00;101409.53;5052803;28;20045;-52
2022/06/29 02:59:38;;;;;;;4.88;3.80;;;;;;;14.61;100.00;101392.41;5053955;28;20033;-57
2022/06/29 03:02:03;;;;;;;7.80;4.20;;;;;;;14.60;100.00;101396.84;5052154;28;20059;-55
2022/06/29 03:04:29;;;;;;;6.25;4.00;;;;;;;14.63;100.00;101409.97;5053373;28;20033;-56
2022/06/29 03:06:55;;;;;;;5.40;4.25;;;;;;;14.60;100.00;101404.78;5053549;28;20121;-55
2022/06/29 03:09:20;;;;;;;5.65;3.85;;;;;;;14.15;100.00;101329.78;5053488;28;20029;-55
2022/06/29 03:11:45;;;;;;;5.47;3.97;;;;;;;14.28;100.00;101349.56;5053629;28;20109;-56
2022/06/29 03:14:10;;;;;;;6.25;4.72;;;;;;;14.49;100.00;101391.13;5052194;28;20032;-53
2022/06/29 03:16:37;;;;;;;5.45;4.18;;;;;;;14.48;100.00;101383.22;5035451;28;20036;-52
2022/06/29 03:19:02;;;;;;;7.05;4.70;;;;;;;14.19;100.00;101333.16;5053308;28;20029;-52
2022/06/29 03:21:27;;;;;;;6.80;4.30;;;;;;;14.39;100.00;101378.31;5053140;28;20079;-55
2022/06/29 03:23:53;;;;;;;5.13;4.53;;;;;;;14.39;100.00;101371.22;5053238;28;20049;-55
2022/06/29 03:26:18;;;;;;;6.70;4.47;;;;;;;14.33;100.00;101371.44;5053126;28;20369;-53
2022/06/29 03:28:43;;;;;;;5.00;4.50;;;;;;;14.35;100.00;101372.28;5053222;28;20029;-56
2022/06/29 03:31:09;;;;;;;10.02;5.50;;;;;;;14.32;100.00;101366.19;5051787;28;20037;-58
2022/06/29 03:33:34;;;;;;;4.93;4.53;;;;;;;13.99;100.00;101318.94;5051475;28;20033;-51
2022/06/29 03:36:00;;;;;;;5.65;4.50;;;;;;;14.02;100.00;101331.19;5051722;28;20388;-52
2022/06/29 03:38:25;;;;;;;4.97;4.57;;;;;;;14.31;100.00;101375.91;5052777;28;20056;-58
2022/06/29 03:40:51;;;;;;;4.70;4.30;;;;;;;14.27;100.00;101360.22;5052875;28;20087;-54
2022/06/29 03:43:17;;;;;;;5.72;4.95;;;;;;;14.29;100.00;101358.38;5051818;28;20078;-55
2022/06/29 03:45:42;;;;;;;5.65;4.82;;;;;;;14.28;100.00;101357.50;5052256;28;20032;-52
2022/06/29 03:48:07;;;;;;;5.85;5.03;;;;;;;14.30;100.00;101360.94;5052799;28;20057;-58
2022/06/29 03:50:33;;;;;;;9.00;5.30;;;;;;;14.32;100.00;101369.75;5052552;28;20108;-52
2022/06/29 03:52:59;;;;;;;6.68;5.22;;;;;;;14.30;100.00;101366.25;5051252;28;20055;-51
2022/06/29 03:55:24;;;;;;;5.65;5.25;;;;;;;14.31;100.00;101375.91;5052730;28;20041;-56
2022/06/29 03:57:50;;;;;;;7.32;5.32;;;;;;;14.32;100.00;101364.44;5052374;28;20037;-50
2022/06/29 04:00:16;;;;;;;5.25;4.55;;;;;;;13.77;100.00;101282.78;5034860;28;20063;-52
2022/06/29 04:02:41;;;;;;;7.22;5.28;;;;;;;14.33;100.00;101366.16;5051542;28;20043;-55
2022/06/29 04:05:08;;;;;;;8.23;4.95;;;;;;;14.32;100.00;101359.16;5052438;28;20119;-56
2022/06/29 04:07:34;;;;;;;7.68;5.45;;;;;;;14.34;100.00;101364.38;5034150;28;20037;-55
2022/06/29 04:09:59;;;;;;;7.38;5.00;;;;;;;14.31;100.00;101351.22;5052808;28;20055;-57
2022/06/29 04:12:36;;;;;;;5.70;4.90;;;;;;;14.02;100.00;101300.28;5052412;28;20059;-58
2022/06/29 04:15:03;;;;;;;5.70;5.13;;;;;;;14.39;100.00;101357.13;5050846;28;20075;-59
2022/06/29 04:17:29;;;;;;;5.45;4.95;;;;;;;14.09;100.00;101300.91;5052182;28;20061;-56
2022/06/29 04:19:54;;;;;;;7.13;5.05;;;;;;;14.23;100.00;101326.84;5052213;28;20068;-56
2022/06/29 04:22:20;;;;;;;8.18;6.28;;;;;;;14.25;100.00;101327.63;5050503;28;20029;-57
2022/06/29 04:24:46;;;;;;;5.53;5.03;;;;;;;14.43;100.00;101358.72;5050816;28;20049;-59
2022/06/29 04:27:12;;;;;;;6.35;5.75;;;;;;;14.49;100.00;101363.75;5050653;28;20028;-50
2022/06/29 04:29:37;;;;;;;6.53;5.93;;;;;;;14.54;100.00;101356.50;5051935;28;20163;-55
2022/06/29 04:32:03;;;;;;;6.80;6.13;;;;;;;14.31;100.00;101319.44;5051914;28;20049;-54
2022/06/29 04:34:29;;;;;;;7.45;6.00;;;;;;;14.64;100.00;101363.16;5050398;28;20033;-54
2022/06/29 04:36:55;;;;;;;11.82;6.50;;;;;;;14.67;100.00;101357.72;5051733;28;20036;-54
2022/06/29 04:39:20;;;;;;;5.97;5.45;;;;;;;14.71;100.00;101354.00;5051999;28;20037;-54
2022/06/29 04:41:45;;;;;;;7.13;5.88;;;;;;;14.82;100.00;101359.75;5052017;28;20383;-53
2022/06/29 04:44:11;;;;;;;6.93;6.22;;;;;;;14.90;100.00;101362.94;5051854;28;20490;-55
2022/06/29 04:46:36;;;;;;;6.65;5.50;;;;;;;14.95;100.00;101346.81;5051657;28;20150;-54
2022/06/29 04:49:02;;;;;;;6.85;6.22;;;;;;;14.69;100.00;101283.47;5051801;28;20396;-56
2022/06/29 04:51:29;;;;;;;6.50;5.80;;;;;;;14.76;100.00;101280.50;5051578;28;20033;-57
2022/06/29 04:53:56;;;;;;;6.78;6.07;;;;;;;14.84;100.00;101282.81;5051724;28;20041;-60
2022/06/29 04:56:23;;;;;;;7.07;5.72;;;;;;;15.24;100.00;101341.13;5050760;28;20032;-53
2022/06/29 04:58:50;;;;;;;6.13;5.47;;;;;;;15.29;100.00;101328.56;5051364;28;20471;-55
2022/06/29 05:01:18;;;;;;;6.70;5.72;;;;;;;15.35;100.00;101332.72;5050522;28;20060;-55
2022/06/29 05:03:43;;;;;;;8.07;5.93;;;;;;;15.42;100.00;101331.50;5049776;28;20579;-53
2022/06/29 05:06:09;;;;;;;7.25;5.72;;;;;;;15.57;100.00;101338.81;5048670;28;20120;-56
2022/06/29 05:08:34;;;;;;;8.75;5.93;;;;;;;15.68;100.00;101328.56;5049144;28;20067;-56
2022/06/29 05:11:00;;;;;;;9.98;6.22;;;;;;;15.80;100.00;101335.97;5050922;28;20049;-57
2022/06/29 05:13:25;;;;;;;6.20;5.70;;;;;;;15.87;100.00;101329.47;5050771;28;20029;-55
2022/06/29 05:15:50;;;;;;;6.38;5.80;;;;;;;15.92;100.00;101324.81;5050165;28;20039;-59
2022/06/29 05:18:16;;;;;;;6.85;5.70;;;;;;;16.12;100.00;101331.81;5049117;28;20037;-58
2022/06/29 05:20:42;;;;;;;9.15;6.72;;;;;;;16.21;100.00;101334.03;5049273;28;20033;-58
2022/06/29 05:23:09;;;;;;;7.55;6.22;;;;;;;16.29;100.00;101330.09;5049569;28;20044;-56
2022/06/29 05:25:34;;;;;;;8.63;6.47;;;;;;;16.44;100.00;101338.25;5050292;28;20043;-57
2022/06/29 05:28:00;;;;;;;7.13;5.80;;;;;;;16.57;100.00;101340.28;5049660;28;20120;-56
2022/06/29 05:30:25;;;;;;;7.50;6.70;;;;;;;16.75;100.00;101342.00;5050794;28;20396;-56
2022/06/29 05:32:51;;;;;;;5.95;5.38;;;;;;;16.90;100.00;101335.06;5049361;28;20029;-58
2022/06/29 05:35:16;;;;;;;6.30;5.70;;;;;;;17.04;100.00;101332.56;5050099;28;20091;-57
2022/06/29 05:37:42;;;;;;;9.05;7.03;;;;;;;17.16;100.00;101336.41;5050683;28;20036;-55
2022/06/29 05:40:07;;;;;;;8.93;6.07;;;;;;;17.01;100.00;101302.63;5033064;28;20036;-58
2022/06/29 05:42:33;;;;;;;6.78;6.18;;;;;;;17.08;100.00;101280.06;5050461;28;20033;-55
2022/06/29 05:44:58;;;;;;;7.15;6.05;;;;;;;17.49;100.00;101337.28;5049659;28;20033;-54
2022/06/29 05:47:23;;;;;;;7.38;6.63;;;;;;;17.29;100.00;101281.59;5050371;28;20047;-52
2022/06/29 05:49:49;;;;;;;7.18;6.47;;;;;;;17.69;100.00;101328.25;5049134;28;20530;-60
2022/06/29 05:52:14;;;;;;;7.72;6.80;;;;;;;17.79;100.00;101327.69;5049798;28;20044;-55
2022/06/29 05:54:41;;;;;;;7.22;5.97;;;;;;;17.91;100.00;101329.69;5050834;28;20041;-57
2022/06/29 05:57:06;;;;;;;6.97;6.22;;;;;;;17.99;100.00;101319.47;5048616;28;20405;-57
2022/06/29 05:59:32;;;;;;;6.43;5.85;;;;;;;18.12;100.00;101329.44;5050382;28;20044;-57
2022/06/29 06:01:58;;;;;;;8.38;6.15;;;;;;;18.21;100.00;101335.13;5049887;28;20033;-56
2022/06/29 06:04:24;;;;;;;8.32;6.47;;;;;;;18.30;100.00;101331.91;5049007;28;20036;-54
2022/06/29 06:06:49;;;;;;;7.75;6.95;;;;;;;18.41;100.00;101321.53;5049114;28;20083;-56
2022/06/29 06:09:15;;;;;;;6.43;5.82;;;;;;;18.50;100.00;101331.69;5053693;28;20068;-58
2022/06/29 06:11:40;;;;;;;7.00;6.03;;;;;;;18.43;100.00;101292.09;5053718;28;20113;-52
2022/06/29 06:14:05;;;;;;;6.95;6.07;;;;;;;18.84;100.00;101335.06;5053891;28;20445;-56
2022/06/29 06:16:31;;;;;;;6.70;6.10;;;;;;;18.85;100.00;101315.44;5053012;28;20340;-57
2022/06/29 06:18:56;;;;;;;6.65;5.97;;;;;;;19.06;100.00;101338.16;5053701;28;20032;-55
2022/06/29 06:21:22;;;;;;;8.30;6.05;;;;;;;18.86;100.00;101278.00;5052847;28;20079;-55
2022/06/29 06:23:48;;;;;;;7.65;5.97;;;;;;;19.24;100.00;101315.72;5052126;28;20080;-54
2022/06/29 06:26:13;;;;;;;6.63;5.95;;;;;;;19.17;100.00;101293.03;5053852;28;20431;-54
2022/06/29 06:28:40;;;;;;;6.75;5.28;;;;;;;19.56;100.00;101332.47;5036142;28;20105;-58
2022/06/29 06:31:07;;;;;;;7.75;5.95;;;;;;;19.72;100.00;101335.91;5053644;28;20055;-58
2022/06/29 06:33:32;;;;;;;6.80;5.38;;;;;;;19.82;100.00;101345.06;5052572;28;20523;-55
2022/06/29 06:35:57;;;;;;;6.18;5.50;;;;;;;19.94;100.00;101322.03;5052904;28;20033;-55
2022/06/29 06:38:23;;;;;;;7.22;5.82;;;;;;;20.11;100.00;101340.56;5053000;28;20496;-53
2022/06/29 06:43:32;;;;;;;6.40;5.70;;;;;;;20.07;100.00;101299.81;5053147;28;20499;-53
2022/06/29 06:45:57;;;;;;;7.07;5.57;;;;;;;20.47;100.00;101334.66;5052315;28;20033;-52
2022/06/29 06:48:22;;;;;;;8.43;5.90;;;;;;;20.58;100.00;101340.16;5053278;28;20076;-50
2022/06/29 06:50:47;;;;;;;7.90;5.88;;;;;;;20.71;100.00;101351.78;5052595;28;20037;-57
2022/06/29 06:53:13;;;;;;;6.20;5.68;;;;;;;20.76;100.00;101350.50;5053552;28;20040;-54
2022/06/29 06:55:38;;;;;;;8.15;5.22;;;;;;;20.83;100.00;101334.91;5053093;28;20455;-54
2022/06/29 06:58:03;;;;;;;9.05;5.53;;;;;;;21.02;100.00;101342.53;5053148;28;20404;-51
2022/06/29 07:00:29;;;;;;;6.38;5.55;;;;;;;20.87;100.00;101292.75;5052928;28;20409;-51
2022/06/29 07:02:55;;;;;;;9.70;6.05;;;;;;;21.19;100.00;101319.03;5053260;28;20464;-59
2022/06/29 07:05:20;;;;;;;5.10;4.60;;;;;;;21.53;100.00;101346.16;5051715;28;20120;-54
2022/06/29 07:07:46;;;;;;;5.72;5.20;;;;;;;21.64;100.00;101336.41;5049908;28;20037;-58
2022/06/29 07:10:11;;;;;;;5.80;5.18;;;;;;;21.75;100.00;101347.22;5051898;28;20029;-51
2022/06/29 07:12:36;;;;;;;5.80;5.22;;;;;;;21.54;100.00;101291.66;5052679;28;20037;-56
2022/06/29 07:15:03;;;;;;;6.00;5.28;;;;;;;21.61;100.00;101306.31;5050802;28;20562;-54
2022/06/29 07:17:28;;;;;;;5.90;5.35;;;;;;;21.66;100.00;101339.84;5052607;28;20044;-57
2022/06/29 07:19:53;;;;;;;6.28;5.13;;;;;;;21.63;100.00;101341.88;5050975;28;20033;-58
2022/06/29 07:22:19;;;;;;;6.38;5.65;;;;;;;21.59;100.00;101337.72;5051506;28;20029;-58
2022/06/29 07:24:44;;;;;;;8.73;6.47;;;;;;;21.61;100.00;101342.00;5051119;28;20361;-58
2022/06/29 07:27:10;;;;;;;9.85;5.18;;;;;;;21.72;100.00;101326.00;5052414;28;20029;-53
2022/06/29 07:29:36;;;;;;;5.88;5.32;;;;;;;21.88;100.00;101327.63;5052269;28;20037;-59
2022/06/29 07:32:01;;;;;;;5.68;5.10;;;;;;;21.85;100.00;101283.13;5052311;28;20487;-54
2022/06/29 07:34:26;;;;;;;5.72;5.00;;;;;;;22.12;100.00;101275.78;5052083;28;20102;-50
2022/06/29 07:36:52;;;;;;;8.55;6.03;;;;;;;22.63;100.00;101343.47;5051309;28;20036;-52
2022/06/29 07:39:17;;;;;;;5.57;4.93;;;;;;;22.84;100.00;101333.00;5051193;28;20029;-56
2022/06/29 07:41:42;;;;;;;5.85;4.72;;;;;;;23.15;100.00;101331.50;5050450;28;20044;-56
2022/06/29 07:44:07;;;;;;;8.07;4.85;;;;;;;23.48;100.00;101324.41;5052258;28;20044;-56
2022/06/29 07:46:33;;;;;;;4.68;4.25;;;;;;;23.96;100.00;101338.47;5052063;28;20222;-54
2022/06/29 07:48:58;;;;;;;8.07;4.20;;;;;;;24.37;100.00;101345.88;5052019;28;20044;-53
2022/06/29 07:51:24;;;;;;;5.28;3.95;;;;;;;24.87;100.00;101344.41;5051772;28;20373;-58
2022/06/29 07:53:49;;;;;;;5.63;3.90;;;;;;;25.48;100.00;101353.53;5049933;28;20029;-56
2022/06/29 07:56:14;;;;;;;7.05;4.07;;;;;;;25.98;100.00;101359.88;5049665;28;20492;-57
2022/06/29 07:58:40;;;;;;;4.20;3.63;;;;;;;26.52;100.00;101372.16;5051023;28;20388;-52
2022/06/29 08:01:05;;;;;;;6.70;4.00;;;;;;;26.95;100.00;101372.66;5051571;28;20119;-54
2022/06/29 08:03:31;;;;;;;4.72;3.78;;;;;;;27.27;100.00;101321.88;5049865;28;20063;-54
2022/06/29 08:05:58;;;;;;;4.43;3.97;;;;;;;27.80;100.00;101386.22;5049337;28;20040;-51
2022/06/29 08:08:23;;;;;;;5.88;3.40;;;;;;;28.20;100.00;101388.66;5050767;28;20044;-52
2022/06/29 08:10:48;;;;;;;4.97;3.13;;;;;;;28.35;100.00;101336.56;5050218;28;20029;-51
2022/06/29 08:13:14;;;;;;;4.05;3.45;;;;;;;28.62;100.00;101381.72;5048918;28;20033;-54
2022/06/29 08:15:39;;;;;;;5.18;3.20;;;;;;;28.79;100.00;101334.00;5047952;28;20128;-50
2022/06/29 08:18:04;;;;;;;5.90;3.50;;;;;;;29.18;100.00;101370.63;5049479;28;20091;-50
2022/06/29 08:20:33;;;;;;;4.53;3.22;;;;;;;29.16;100.00;101377.22;5049087;28;20090;-55
2022/06/29 08:23:00;;;;;;;4.53;3.08;;;;;;;29.36;100.00;101381.47;5051737;28;20029;-51
2022/06/29 08:25:26;;;;;;;4.97;2.70;;;;;;;29.33;100.00;101360.94;5049385;28;20059;-56
2022/06/29 08:27:52;;;;;;;4.32;3.17;;;;;;;29.34;100.00;101343.66;5050627;28;20028;-57
2022/06/29 08:30:18;;;;;;;5.75;3.05;;;;;;;29.75;100.00;101376.47;5048981;28;20033;-51
2022/06/29 08:32:44;;;;;;;7.35;3.08;;;;;;;30.03;100.00;101378.03;5048173;28;20041;-54
2022/06/29 08:35:14;;;;;;;5.03;3.63;;;;;;;30.05;100.00;101325.25;5048824;28;20033;-53
2022/06/29 08:37:40;;;;;;;5.97;2.88;;;;;;;30.37;100.00;101362.53;5048248;28;20068;-51
2022/06/29 08:40:10;;;;;;;6.47;3.13;;;;;;;29.99;100.00;101316.91;5049840;28;20041;-55
2022/06/29 08:42:37;;;;;;;9.07;3.10;;;;;;;30.45;100.00;101359.03;5032429;28;20048;-55
2022/06/29 08:45:03;;;;;;;3.20;2.83;;;;;;;30.57;100.00;101336.81;5032263;28;20059;-55
2022/06/29 08:47:28;;;;;;;4.90;2.58;;;;;;;30.63;100.00;101370.63;5050263;28;20045;-51
2022/06/29 08:49:55;;;;;;;3.55;2.50;;;;;;;30.79;100.00;101378.81;5049672;28;20095;-55
2022/06/29 08:52:21;;;;;;;4.72;2.33;;;;;;;30.84;100.00;101365.56;5050064;28;20211;-59
2022/06/29 08:54:48;;;;;;;4.68;2.05;;;;;;;30.70;100.00;101319.19;5050258;28;20128;-53
2022/06/29 08:57:15;;;;;;;4.57;2.70;;;;;;;30.92;100.00;101362.84;5049760;28;20033;-52
2022/06/29 08:59:40;;;;;;;4.82;2.45;;;;;;;31.02;100.00;101366.31;5048658;28;20041;-54
2022/06/29 09:02:06;;;;;;;6.18;3.15;;;;;;;31.29;100.00;101365.09;5031362;28;20048;-54
2022/06/29 09:04:31;;;;;;;4.63;1.92;;;;;;;31.18;100.00;101319.19;5049463;28;20104;-53
2022/06/29 09:06:57;;;;;;;2.97;2.00;;;;;;;31.54;100.00;101339.59;5049512;28;20052;-56
2022/06/29 09:09:23;;;;;;;5.60;1.88;;;;;;;32.02;100.00;101363.13;5047849;28;20483;-53
2022/06/29 09:11:50;;;;;;;5.97;1.50;;;;;;;31.96;95.83;101357.53;5047589;28;20404;-55
2022/06/29 09:14:20;;;;;;;3.78;1.80;;;;;;;31.95;94.82;101361.25;5048500;28;20480;-57
2022/06/29 09:16:58;;;;;;;3.58;1.70;;;;;;;31.84;100.00;101353.47;5049368;28;20225;-48
2022/06/29 09:19:27;;;;;;;4.55;1.85;;;;;;;32.01;99.21;101352.38;5048922;28;20074;-55
2022/06/29 09:21:54;;;;;;;5.25;1.80;;;;;;;32.31;98.52;101354.34;5049156;28;20484;-49
2022/06/29 09:24:28;;;;;;;3.05;1.40;;;;;;;32.52;100.00;101342.78;5048486;28;20166;-54
2022/06/29 09:27:05;;;;;;;3.53;1.60;;;;;;;32.72;100.00;101353.06;5048190;28;20041;-56
2022/06/29 09:29:32;;;;;;;2.17;1.15;;;;;;;32.49;89.70;101322.19;5031331;28;20056;-51
2022/06/29 09:32:04;;;;;;;3.15;1.63;;;;;;;32.60;93.69;101346.38;5048098;28;20452;-55
2022/06/29 09:34:34;;;;;;;2.58;1.58;;;;;;;32.69;90.32;101355.34;5050078;28;20428;-59
2022/06/29 09:37:00;;;;;;;;;;;;;;;32.85;100.00;101344.28;5048927;28;20080;-52
2022/06/29 09:39:36;;;;;;;4.53;1.40;;;;;;;33.00;85.67;101353.38;5049333;28;19962;-55
2022/06/29 09:42:06;;;;;;;1.58;1.08;;;;;;;33.06;90.54;101352.66;5050139;28;20486;-54
2022/06/29 09:44:32;;;;;;;1.58;1.38;;;;;;;33.17;85.32;101351.41;5053584;28;20033;-58
2022/06/29 09:46:57;;;;;;;2.22;1.30;;;;;;;33.14;83.47;101328.06;5052746;28;20119;-50
2022/06/29 09:49:28;;;;;;;2.95;1.27;;;;;;;33.05;81.22;101320.09;5051461;28;20064;-51
2022/06/29 09:51:56;;;;;;;4.50;1.23;;;;;;;33.18;78.42;101350.38;5052030;28;20040;-49
2022/06/29 09:54:24;;;;;;;1.55;1.25;;;;;;;33.20;84.11;101323.75;5053420;28;20079;-52
2022/06/29 09:56:50;;;;;;;1.48;1.20;;;;;;;33.31;87.84;101356.88;5052966;28;20033;-49
2022/06/29 10:02:34;;;;;;;4.78;1.65;;;;;;;33.32;86.70;101357.75;5052676;28;20029;-52
2022/06/29 10:04:59;;;;;;;2.22;1.20;;;;;;;33.30;90.47;101307.97;5052724;28;20155;-48
2022/06/29 10:07:25;;;;;;;1.67;1.20;;;;;;;33.62;87.92;101345.88;5053002;28;20215;-51
2022/06/29 10:09:50;;;;;;;1.50;1.40;;;;;;;33.57;81.28;101301.84;5050887;28;20405;-50
2022/06/29 10:15:27;;;;;;;3.22;1.20;;;;;;;32.06;92.87;101344.56;5049521;28;20043;-55
2022/06/29 10:18:18;;;;;;;6.15;1.70;;;;;;;32.40;92.57;101338.78;5053565;28;20099;-49
2022/06/29 10:20:47;;;;;;;3.28;1.50;;;;;;;33.16;95.01;101342.34;5042038;28;20053;-52
2022/06/29 10:23:47;;;;;;;2.92;1.13;;;;;;;33.49;83.17;101348.34;5050901;28;20033;-52
2022/06/29 10:26:28;;;;;;;2.10;1.25;;;;;;;32.94;81.97;101342.34;5052249;28;20039;-52
2022/06/29 10:28:54;;;;;;;4.07;1.10;;;;;;;32.83;83.99;101330.00;5049783;28;20088;-52
2022/06/29 10:31:56;;;;;;;1.95;1.15;;;;;;;33.46;100.00;101326.91;5049973;28;20049;-56
2022/06/29 10:34:31;;;;;;;2.55;1.10;;;;;;;34.23;78.98;101332.88;5051243;28;20063;-54
2022/06/29 10:37:11;;;;;;;4.15;1.52;;;;;;;33.65;78.61;101326.41;5050912;28;20459;-52
2022/06/29 10:39:45;;;;;;;2.45;1.48;;;;;;;33.24;86.04;101323.22;5051481;28;20510;-53
2022/06/29 10:45:21;;;;;;;5.15;1.65;;;;;;;33.70;79.70;101314.91;5051328;28;20507;-56
2022/06/29 10:48:12;;;;;;;4.35;1.45;;;;;;;33.29;74.46;101319.91;5049236;28;20116;-57
2022/06/29 10:50:38;;;;;;;3.35;1.48;;;;;;;33.54;83.78;101309.59;5050948;28;20021;-52
2022/06/29 10:53:08;;;;;;;1.80;1.13;;;;;;;33.75;76.03;101272.34;5050809;28;20025;-53
2022/06/29 10:55:39;;;;;;;6.97;1.23;;;;;;;33.44;73.18;101301.69;5050905;28;20045;-49
2022/06/29 10:58:04;;;;;;;4.55;1.13;;;;;;;32.38;86.53;101314.44;5050801;28;20518;-50
2022/06/29 11:00:41;;;;;;;3.17;1.50;;;;;;;31.12;88.63;101276.38;5050783;28;20041;-49
2022/06/29 11:03:12;;;;;;;1.60;0.90;;;;;;;31.08;85.71;101311.25;5050849;28;20112;-51
2022/06/29 11:12:01;;;;;;;2.17;1.27;;;;;;;31.07;92.44;101268.75;5049601;28;20036;-53
2022/06/29 11:13:56;;;;;;;2.70;1.10;;;;;;;34.20;74.90;101263.06;5051494;28;20144;-52
2022/06/29 11:16:28;;;;;;;6.85;1.25;;;;;;;33.78;67.67;101261.03;5050221;28;20032;-59
2022/06/29 11:18:55;;;;;;;2.78;1.25;;;;;;;33.25;74.67;101277.66;5051972;28;20425;-53
2022/06/29 11:21:21;;;;;;;6.05;1.67;;;;;;;33.05;78.74;101307.31;5050583;28;20043;-58
2022/06/29 11:24:03;;;;;;;2.35;1.63;;;;;;;33.14;79.39;101305.38;5050131;28;20496;-48
2022/06/29 11:26:29;;;;;;;2.22;1.30;;;;;;;32.79;82.98;101309.56;5051488;28;20091;-51
2022/06/29 11:28:57;;;;;;;1.98;1.38;;;;;;;32.18;83.06;101272.31;5051500;28;20029;-53
2022/06/29 11:31:22;;;;;;;2.35;1.45;;;;;;;32.07;76.84;101305.41;5051246;28;20040;-52
2022/06/29 11:33:49;;;;;;;1.98;1.30;;;;;;;31.47;81.10;101308.63;5051203;28;20037;-58
2022/06/29 11:36:26;;;;;;;2.55;1.30;;;;;;;30.73;88.16;101310.69;5051579;28;20040;-47
2022/06/29 11:38:53;;;;;;;2.67;1.40;;;;;;;30.19;94.67;101269.47;5050141;28;20494;-49